Time;durP1;ratioP1;P1;durP2;ratioP2;P2;SDS_P1;SDS_P2;PMS_P1;PMS_P2;Temp;Humidity;BMP_temperature;BMP_pressure;BME280_temperature;BME280_humidity;BME280_pressure;Samples;Min_cycle;Max_cycle;Signal;HPM_P1;HPM_P2
2022/11/08 00:01:31;;;;;;;9.10;2.50;;;;;;;;;;5029673;28;20048;-84
2022/11/08 00:04:02;;;;;;;8.10;2.92;;;;;;;12.03;100.00;68104.28;5037049;28;20042;-84
2022/11/08 00:14:40;;;;;;;7.20;2.58;;;;;;;;;;5028963;28;20124;-84
2022/11/08 00:17:05;;;;;;;10.82;3.22;;;;;;;;;;5029344;28;20852;-84
2022/11/08 00:19:30;;;;;;;9.80;3.33;;;;;;;11.92;100.00;68098.22;5029533;28;20557;-84
2022/11/08 00:21:56;;;;;;;7.28;2.97;;;;;;;11.93;100.00;68093.47;5031408;28;21275;-84
2022/11/08 00:24:21;;;;;;;11.43;2.67;;;;;;;;;;5027710;28;20113;-84
2022/11/08 00:26:46;;;;;;;7.87;2.83;;;;;;;;;;5029471;28;20041;-84
2022/11/08 00:29:11;;;;;;;11.40;2.73;;;;;;;11.90;100.00;68090.06;5027896;28;20362;-84
2022/11/08 00:31:37;;;;;;;8.80;3.17;;;;;;;11.87;100.00;68087.22;5029829;28;20272;-84
2022/11/08 00:34:02;;;;;;;8.52;2.92;;;;;;;11.87;100.00;68087.22;5029150;28;20120;-84
2022/11/08 00:36:28;;;;;;;9.27;2.45;;;;;;;11.92;100.00;68097.66;5027701;28;20453;-84
2022/11/08 00:38:53;;;;;;;8.32;2.70;;;;;;;;;;5028593;28;20046;-83
2022/11/08 00:41:19;;;;;;;9.00;3.00;;;;;;;11.88;100.00;68093.69;5028942;28;20045;-83
2022/11/08 00:43:44;;;;;;;7.07;2.60;;;;;;;;;;5030158;28;20280;-84
2022/11/08 00:46:09;;;;;;;5.13;2.33;;;;;;;;;;5027063;28;20042;-84
2022/11/08 00:48:34;;;;;;;10.07;3.05;;;;;;;11.85;100.00;68084.34;5030024;28;20072;-84
2022/11/08 00:51:05;;;;;;;6.32;2.67;;;;;;;11.82;100.00;68086.84;5029326;28;20048;-84
2022/11/08 00:53:31;;;;;;;11.50;3.38;;;;;;;11.80;100.00;68084.59;5029927;28;20045;-83
2022/11/08 00:56:04;;;;;;;7.25;2.70;;;;;;;11.77;100.00;68075.84;5029885;28;20191;-84
2022/11/08 00:58:29;;;;;;;9.88;2.63;;;;;;;11.77;100.00;68075.25;5028467;28;20038;-83
2022/11/08 01:00:55;;;;;;;10.95;3.47;;;;;;;11.73;100.00;68071.84;5013344;28;20034;-83
2022/11/08 01:03:21;;;;;;;7.03;2.85;;;;;;;;;;5016288;28;20037;-84
2022/11/08 01:05:47;;;;;;;10.00;3.08;;;;;;;11.77;100.00;68080.59;5026890;28;20048;-84
2022/11/08 01:08:13;;;;;;;12.45;3.05;;;;;;;11.75;100.00;68073.56;5027662;28;20044;-84
2022/11/08 01:10:47;;;;;;;11.88;3.10;;;;;;;11.76;100.00;68074.69;5022245;28;20042;-84
2022/11/08 01:13:13;;;;;;;10.32;3.20;;;;;;;11.80;100.00;68079.25;5026369;28;20120;-84
2022/11/08 01:15:41;;;;;;;8.18;3.15;;;;;;;11.80;100.00;68078.69;5028738;28;20037;-83
2022/11/08 01:18:08;;;;;;;9.65;3.10;;;;;;;;;;5028023;28;20048;-83
2022/11/08 01:20:38;;;;;;;7.45;2.50;;;;;;;11.80;100.00;68078.69;5028573;28;20518;-83
2022/11/08 01:23:03;;;;;;;8.98;3.05;;;;;;;11.81;100.00;68080.38;5029977;28;20052;-84
2022/11/08 01:25:29;;;;;;;10.02;3.28;;;;;;;11.80;100.00;68079.25;5028270;28;20112;-84
2022/11/08 01:27:54;;;;;;;14.43;3.83;;;;;;;11.84;100.00;68083.22;5027489;28;20087;-83
2022/11/08 01:30:19;;;;;;;7.25;3.05;;;;;;;11.80;100.00;68079.25;5024489;28;20037;-83
2022/11/08 01:32:45;;;;;;;10.95;2.88;;;;;;;;;;5028415;28;20048;-83
2022/11/08 01:35:10;;;;;;;7.70;2.97;;;;;;;11.74;100.00;68072.44;5042752;28;20209;-84
2022/11/08 01:37:35;;;;;;;8.40;3.22;;;;;;;;;;5054362;28;20300;-83
2022/11/08 01:40:01;;;;;;;8.33;2.90;;;;;;;11.68;100.00;68065.59;5054424;28;20030;-84
2022/11/08 01:42:31;;;;;;;6.88;2.83;;;;;;;11.66;100.00;68068.69;5053181;28;20318;-84
2022/11/08 01:44:59;;;;;;;11.15;3.25;;;;;;;11.65;100.00;68062.19;5036323;28;20041;-84
2022/11/08 01:47:24;;;;;;;12.45;3.85;;;;;;;11.62;100.00;68066.78;5031023;28;20050;-84
2022/11/08 01:49:52;;;;;;;6.85;3.10;;;;;;;11.62;100.00;68058.78;5032346;28;20046;-84
2022/11/08 01:52:23;;;;;;;9.95;3.60;;;;;;;11.61;100.00;68058.22;5032386;28;20047;-84
2022/11/08 01:55:09;;;;;;;9.13;3.63;;;;;;;11.61;100.00;68057.66;5032332;28;20052;-84
2022/11/08 01:57:42;;;;;;;11.02;4.05;;;;;;;11.58;100.00;68062.25;5030862;28;20046;-84
2022/11/08 02:00:11;;;;;;;9.88;3.83;;;;;;;11.58;100.00;68059.59;5031218;28;20034;-84
2022/11/08 02:02:38;;;;;;;12.02;4.35;;;;;;;11.60;100.00;68057.09;5029817;28;20083;-84
2022/11/08 02:05:05;;;;;;;11.10;4.13;;;;;;;;;;5031392;28;20064;-84
2022/11/08 02:07:33;;;;;;;12.95;4.30;;;;;;;11.57;100.00;68053.13;5030741;28;20045;-84
2022/11/08 02:10:00;;;;;;;8.32;4.00;;;;;;;11.58;100.00;68060.16;5029342;28;20109;-84
2022/11/08 02:12:25;;;;;;;9.20;4.00;;;;;;;;;;5030321;28;20033;-85
2022/11/08 02:14:50;;;;;;;11.75;4.22;;;;;;;11.56;100.00;68051.97;5032424;28;20384;-85
2022/11/08 02:17:15;;;;;;;9.93;4.68;;;;;;;;;;5026858;28;20091;-85
2022/11/08 02:19:49;;;;;;;10.87;4.43;;;;;;;11.52;100.00;68048.56;5029942;28;20167;-85
2022/11/08 02:22:21;;;;;;;14.15;4.82;;;;;;;11.52;100.00;68048.56;5028592;28;20396;-85
2022/11/08 02:24:47;;;;;;;12.57;4.25;;;;;;;11.50;100.00;68045.72;5033424;28;20042;-85
2022/11/08 02:27:13;;;;;;;10.20;4.45;;;;;;;11.47;100.00;68048.22;5034755;28;20041;-84
2022/11/08 02:29:39;;;;;;;12.55;4.57;;;;;;;;;;5034746;28;20025;-84
2022/11/08 02:32:05;;;;;;;10.75;5.03;;;;;;;;;;5033409;28;20060;-84
2022/11/08 02:34:40;;;;;;;11.82;4.43;;;;;;;11.42;100.00;68042.56;5034334;28;20453;-84
2022/11/08 02:37:06;;;;;;;10.60;4.38;;;;;;;11.38;100.00;68038.00;5032947;28;20072;-84
2022/11/08 02:39:33;;;;;;;15.40;4.53;;;;;;;;;;5032500;28;20045;-84
2022/11/08 02:41:58;;;;;;;9.98;3.88;;;;;;;11.37;100.00;68036.31;5035215;28;20069;-84
2022/11/08 02:44:24;;;;;;;7.72;4.03;;;;;;;11.33;100.00;68027.00;5034668;28;20037;-84
2022/11/08 02:46:49;;;;;;;9.98;4.30;;;;;;;11.34;100.00;68032.91;5034603;28;20559;-84
2022/11/08 02:49:14;;;;;;;14.52;5.15;;;;;;;11.32;100.00;68031.19;5032323;28;20541;-84
2022/11/08 02:51:40;;;;;;;10.80;4.25;;;;;;;11.32;100.00;68025.88;5029003;28;20405;-85
2022/11/08 02:54:05;;;;;;;15.40;5.15;;;;;;;11.28;100.00;68021.34;5037986;22;20050;-77
2022/11/08 02:56:31;;;;;;;12.93;4.30;;;;;;;11.24;100.00;68012.03;4991463;28;20102;-79
2022/11/08 02:58:56;;;;;;;8.32;3.88;;;;;;;11.24;100.00;68016.78;5023522;28;20033;-79
2022/11/08 03:01:22;;;;;;;10.50;3.85;;;;;;;11.21;100.00;68018.72;5032418;28;20047;-78
2022/11/08 03:03:47;;;;;;;11.70;4.10;;;;;;;;;;5034028;28;20037;-78
2022/11/08 03:06:12;;;;;;;10.40;4.10;;;;;;;11.18;100.00;68015.88;5032657;28;20041;-78
2022/11/08 03:08:38;;;;;;;9.30;3.28;;;;;;;;;;5033587;28;20322;-78
2022/11/08 03:11:03;;;;;;;13.85;4.45;;;;;;;11.13;100.00;68009.63;5033655;28;20043;-79
2022/11/08 03:13:28;;;;;;;11.35;4.32;;;;;;;11.12;100.00;68008.50;5032683;28;20037;-77
2022/11/08 03:15:54;;;;;;;13.02;3.90;;;;;;;11.12;100.00;68008.50;5024046;28;20042;-77
2022/11/08 03:18:19;;;;;;;11.18;4.05;;;;;;;;;;5028646;28;20044;-78
2022/11/08 03:20:44;;;;;;;12.60;4.10;;;;;;;11.12;100.00;68003.72;5031965;28;20046;-78
2022/11/08 03:23:09;;;;;;;12.35;4.03;;;;;;;;;;5033232;28;20869;-78
2022/11/08 03:25:35;;;;;;;12.23;4.53;;;;;;;;;;5032820;28;20528;-78
2022/11/08 03:28:06;;;;;;;7.77;3.57;;;;;;;11.09;100.00;68000.31;5033918;28;20826;-78
2022/11/08 03:30:32;;;;;;;11.27;4.00;;;;;;;;;;5031808;28;20286;-78
2022/11/08 03:32:57;;;;;;;11.38;3.58;;;;;;;;;;5033239;28;20482;-78
2022/11/08 03:35:23;;;;;;;9.43;3.80;;;;;;;11.02;100.00;67992.38;5031345;28;20045;-78
2022/11/08 03:37:57;;;;;;;10.25;3.83;;;;;;;10.99;100.00;67989.56;5030423;28;20281;-78
2022/11/08 03:40:24;;;;;;;9.13;3.67;;;;;;;10.99;100.00;67994.88;5031856;28;20037;-78
2022/11/08 03:42:49;;;;;;;12.60;4.13;;;;;;;10.98;100.00;67988.41;5031077;28;20537;-78
2022/11/08 03:45:15;;;;;;;8.93;4.18;;;;;;;10.99;100.00;67994.28;5031171;28;20047;-77
2022/11/08 03:47:45;;;;;;;11.60;3.78;;;;;;;10.96;100.00;67986.16;5035963;28;20029;-78
2022/11/08 03:50:11;;;;;;;11.15;3.90;;;;;;;;;;5031478;28;20037;-78
2022/11/08 03:52:40;;;;;;;10.90;4.45;;;;;;;10.96;100.00;67985.56;5031843;28;20452;-78
2022/11/08 03:55:06;;;;;;;8.48;4.05;;;;;;;10.98;100.00;67993.72;5027602;28;20120;-76
2022/11/08 03:57:32;;;;;;;10.27;3.35;;;;;;;10.98;100.00;67987.84;5025705;28;20042;-77
2022/11/08 03:59:57;;;;;;;11.48;4.30;;;;;;;;;;5030002;28;20036;-77
2022/11/08 04:02:22;;;;;;;9.00;3.70;;;;;;;11.01;100.00;67989.13;5028274;28;20114;-77
2022/11/08 04:04:48;;;;;;;11.20;3.58;;;;;;;11.01;100.00;67991.81;5028160;28;20280;-77
2022/11/08 04:07:13;;;;;;;10.35;3.47;;;;;;;;;;5031319;28;20505;-78
2022/11/08 04:09:38;;;;;;;9.07;3.83;;;;;;;11.02;100.00;67992.94;5029928;28;20457;-78
2022/11/08 04:23:10;;;;;;;8.35;2.80;;;;;;;;;;5027097;28;20127;-78
2022/11/08 04:25:35;;;;;;;11.25;3.22;;;;;;;11.04;100.00;67994.66;5052272;28;20234;-78
2022/11/08 04:28:01;;;;;;;8.60;2.92;;;;;;;11.06;100.00;67997.47;5031302;28;20133;-77
2022/11/08 04:30:26;;;;;;;9.20;3.33;;;;;;;11.05;100.00;68001.69;5027338;28;20037;-77
2022/11/08 04:32:51;;;;;;;7.35;3.15;;;;;;;;;;5026496;28;20100;-77
2022/11/08 04:35:17;;;;;;;5.63;2.70;;;;;;;11.05;100.00;67995.78;5023014;28;20052;-76
2022/11/08 04:37:42;;;;;;;8.70;3.05;;;;;;;11.03;100.00;67994.06;5024788;28;20287;-77
2022/11/08 04:40:08;;;;;;;9.63;3.67;;;;;;;11.04;100.00;68000.53;5026286;28;20127;-77
2022/11/08 04:42:34;;;;;;;8.70;2.60;;;;;;;11.04;100.00;68000.53;5028962;28;20052;-76
2022/11/08 04:44:59;;;;;;;8.82;3.10;;;;;;;11.09;100.00;68000.31;5029254;28;20041;-75
2022/11/08 04:47:24;;;;;;;8.30;2.83;;;;;;;;;;5029727;28;20084;-77
2022/11/08 04:49:49;;;;;;;7.35;2.85;;;;;;;11.05;100.00;68001.13;5043475;28;20045;-76
2022/11/08 04:52:15;;;;;;;10.18;2.90;;;;;;;11.03;100.00;67993.50;5028332;28;20040;-77
2022/11/08 04:54:43;;;;;;;7.88;3.03;;;;;;;;;;5029175;28;20716;-76
2022/11/08 04:57:09;;;;;;;7.20;2.72;;;;;;;10.98;100.00;67999.06;5029452;28;20490;-76
2022/11/08 04:59:35;;;;;;;8.63;2.83;;;;;;;10.98;100.00;67993.72;5025970;28;20199;-76
2022/11/08 05:02:00;;;;;;;6.90;2.40;;;;;;;10.96;100.00;67991.47;5026149;28;20522;-76
2022/11/08 05:04:26;;;;;;;7.07;2.47;;;;;;;10.95;100.00;67989.75;5025966;28;20478;-78
2022/11/08 05:06:51;;;;;;;5.72;2.53;;;;;;;10.92;100.00;67986.91;5026468;28;20094;-77
2022/11/08 05:09:16;;;;;;;5.80;2.03;;;;;;;10.94;100.00;67988.63;5027405;28;20509;-77
2022/11/08 05:11:42;;;;;;;6.30;2.20;;;;;;;;;;5028530;28;20515;-76
2022/11/08 05:14:07;;;;;;;8.90;2.77;;;;;;;;;;5030104;28;20041;-77
2022/11/08 05:16:32;;;;;;;5.97;2.00;;;;;;;10.92;100.00;67981.03;5027658;28;20359;-77
2022/11/08 05:18:58;;;;;;;7.10;2.83;;;;;;;10.92;100.00;67976.25;5029566;28;20050;-79
2022/11/08 05:24:11;;;;;;;8.27;3.08;;;;;;;10.99;100.00;67986.31;5008837;28;20045;-76
2022/11/08 05:26:38;;;;;;;7.47;2.20;;;;;;;10.99;100.00;67984.22;5022756;28;20034;-78
2022/11/08 05:29:04;;;;;;;6.55;2.63;;;;;;;11.02;100.00;67992.38;5030750;28;20437;-77
2022/11/08 05:31:30;;;;;;;5.57;2.15;;;;;;;11.02;100.00;67989.72;5022243;28;20111;-76
2022/11/08 05:33:55;;;;;;;5.72;2.40;;;;;;;11.05;100.00;67995.78;5027352;28;20440;-77
2022/11/08 05:36:21;;;;;;;6.18;2.63;;;;;;;;;;5026075;28;20118;-78
2022/11/08 05:38:46;;;;;;;4.28;2.22;;;;;;;;;;5028654;28;20041;-76
2022/11/08 05:41:14;;;;;;;6.97;2.67;;;;;;;;;;5025259;28;20038;-77
2022/11/08 05:43:40;;;;;;;10.02;2.63;;;;;;;11.02;99.77;67990.28;5025836;28;20049;-76
2022/11/08 05:46:05;;;;;;;6.30;2.13;;;;;;;10.99;99.90;67989.56;5027757;28;20051;-76
2022/11/08 05:48:30;;;;;;;4.72;2.30;;;;;;;;;;5029854;28;20060;-78
2022/11/08 05:50:56;;;;;;;5.32;2.75;;;;;;;10.97;100.00;67984.03;5022529;28;20045;-75
2022/11/08 05:53:21;;;;;;;7.60;2.83;;;;;;;10.94;100.00;67981.22;5025596;28;20034;-75
2022/11/08 05:55:47;;;;;;;5.05;1.92;;;;;;;10.95;100.00;67984.44;5029346;28;20477;-76
2022/11/08 05:58:13;;;;;;;8.00;2.55;;;;;;;10.94;100.00;67983.31;5027213;28;20030;-75
2022/11/08 06:00:38;;;;;;;4.18;2.00;;;;;;;10.91;100.00;67985.78;5025797;28;20033;-76
2022/11/08 06:03:04;;;;;;;7.90;2.30;;;;;;;10.92;100.00;67986.91;5028012;28;20136;-76
2022/11/08 06:05:30;;;;;;;5.30;1.95;;;;;;;10.94;100.00;67981.22;5025963;28;20495;-76
2022/11/08 06:07:56;;;;;;;5.45;2.40;;;;;;;10.96;100.00;67985.56;5026062;28;20037;-75
2022/11/08 06:10:21;;;;;;;4.40;2.13;;;;;;;10.94;100.00;67991.28;5025689;28;20033;-76
2022/11/08 06:12:47;;;;;;;5.22;2.40;;;;;;;10.92;100.00;67986.91;5031007;28;20199;-76
2022/11/08 06:15:12;;;;;;;5.32;1.92;;;;;;;;;;5022442;28;20076;-76
2022/11/08 06:17:37;;;;;;;6.07;1.92;;;;;;;10.92;100.00;67986.91;5023630;28;20088;-75
2022/11/08 06:20:06;;;;;;;4.03;2.13;;;;;;;10.92;100.00;67986.91;5027499;28;20090;-77
2022/11/08 06:22:31;;;;;;;6.97;2.37;;;;;;;;;;5013336;28;20091;-76
2022/11/08 06:24:57;;;;;;;6.18;2.33;;;;;;;10.89;100.00;67983.50;5026687;28;20307;-76
2022/11/08 06:27:22;;;;;;;8.80;2.30;;;;;;;;;;5017631;28;20125;-76
2022/11/08 06:29:48;;;;;;;5.18;2.33;;;;;;;10.92;100.00;67986.91;5024705;28;20068;-77
2022/11/08 06:32:13;;;;;;;6.28;2.20;;;;;;;10.94;99.67;67983.31;5009283;28;20054;-76
2022/11/08 06:34:39;;;;;;;5.15;2.35;;;;;;;;;;5032266;28;20721;-76
2022/11/08 06:37:04;;;;;;;5.43;2.13;;;;;;;10.97;99.22;67992.03;5025721;28;20037;-76
2022/11/08 06:39:29;;;;;;;8.73;2.58;;;;;;;10.94;99.14;67989.19;5025804;28;20279;-76
2022/11/08 06:41:55;;;;;;;8.05;2.60;;;;;;;10.94;99.30;67980.63;5026173;28;20076;-78
2022/11/08 06:44:20;;;;;;;6.13;2.45;;;;;;;10.97;98.82;67992.59;5025869;28;20041;-76
2022/11/08 06:46:46;;;;;;;4.20;1.85;;;;;;;;;;5025955;28;20502;-76
2022/11/08 06:49:11;;;;;;;5.97;2.35;;;;;;;;;;5042939;28;20429;-78
2022/11/08 06:51:36;;;;;;;5.13;1.80;;;;;;;;;;5047976;28;20043;-75
2022/11/08 06:54:02;;;;;;;3.85;2.03;;;;;;;;;;5031110;28;20288;-77
2022/11/08 06:56:28;;;;;;;6.32;2.08;;;;;;;10.94;98.25;67983.88;5025655;28;20561;-75
2022/11/08 06:58:53;;;;;;;4.25;2.05;;;;;;;10.95;98.16;67981.78;5026498;28;20063;-75
2022/11/08 07:01:18;;;;;;;9.43;1.92;;;;;;;10.96;98.02;67991.47;5026885;28;20045;-76
2022/11/08 07:03:44;;;;;;;7.43;1.80;;;;;;;;;;5026745;28;20052;-75
2022/11/08 07:06:09;;;;;;;5.07;2.10;;;;;;;11.00;97.29;67996.00;5025928;28;20042;-76
2022/11/08 07:08:34;;;;;;;5.03;2.55;;;;;;;10.99;97.19;67994.88;5026506;28;20448;-76
2022/11/08 07:11:00;;;;;;;5.70;2.40;;;;;;;11.02;96.98;68000.38;5026753;28;20033;-76
2022/11/08 07:13:25;;;;;;;7.28;1.83;;;;;;;;;;5026293;28;20057;-76
2022/11/08 07:15:51;;;;;;;5.93;2.03;;;;;;;;;;5027543;28;20040;-76
2022/11/08 07:18:16;;;;;;;4.78;1.85;;;;;;;;;;5025881;28;20103;-76
2022/11/08 07:20:42;;;;;;;5.35;2.30;;;;;;;11.09;96.23;67999.75;5027055;28;20045;-75
2022/11/08 07:23:09;;;;;;;3.83;1.77;;;;;;;11.10;96.08;68000.88;5023657;28;20103;-76
2022/11/08 07:25:35;;;;;;;5.30;2.03;;;;;;;11.11;96.05;68002.59;5026132;28;20061;-75
2022/11/08 07:28:02;;;;;;;5.55;1.80;;;;;;;;;;5026263;28;20394;-76
2022/11/08 07:30:28;;;;;;;6.60;2.28;;;;;;;11.14;95.78;68011.34;5024319;28;20044;-76
2022/11/08 07:32:54;;;;;;;5.45;2.33;;;;;;;;;;5027079;28;20049;-75
2022/11/08 07:35:19;;;;;;;5.28;2.05;;;;;;;;;;5025073;28;20045;-76
2022/11/08 07:37:45;;;;;;;3.72;1.67;;;;;;;;;;5027055;28;20080;-76
2022/11/08 07:40:10;;;;;;;5.63;2.10;;;;;;;;;;5026045;28;20072;-76
2022/11/08 07:42:39;;;;;;;4.53;2.05;;;;;;;;;;5025501;28;20418;-76
2022/11/08 07:45:05;;;;;;;4.90;1.98;;;;;;;;;;5025163;28;20045;-76
2022/11/08 07:47:30;;;;;;;3.95;1.90;;;;;;;11.36;93.62;68029.84;5024191;28;20084;-76
2022/11/08 07:49:56;;;;;;;4.57;2.00;;;;;;;11.41;93.08;68035.53;5027202;28;20069;-76
2022/11/08 07:52:21;;;;;;;4.43;1.98;;;;;;;;;;5026062;28;20033;-76
2022/11/08 07:54:47;;;;;;;5.53;1.88;;;;;;;;;;5027057;28;20558;-76
2022/11/08 07:57:12;;;;;;;3.67;1.70;;;;;;;11.51;92.10;68047.44;5027516;28;20042;-76
2022/11/08 07:59:37;;;;;;;4.65;2.08;;;;;;;11.51;92.23;68047.44;5027435;28;20045;-76
2022/11/08 08:02:02;;;;;;;6.03;2.15;;;;;;;;;;5026743;28;20041;-76
2022/11/08 08:04:28;;;;;;;4.30;1.87;;;;;;;11.57;91.56;68058.47;5026789;28;20132;-75
2022/11/08 08:06:54;;;;;;;2.90;1.60;;;;;;;11.61;91.30;68063.00;5025409;28;20370;-76
2022/11/08 08:09:19;;;;;;;5.28;1.58;;;;;;;;;;5026224;28;20080;-76
2022/11/08 08:11:44;;;;;;;6.28;1.70;;;;;;;;;;5026935;28;20114;-76
2022/11/08 08:14:10;;;;;;;3.95;1.70;;;;;;;11.75;90.40;68079.47;5027772;28;20045;-75
2022/11/08 08:16:35;;;;;;;3.30;1.50;;;;;;;;;;5029976;28;20041;-76
2022/11/08 08:19:01;;;;;;;4.25;1.60;;;;;;;;;;5028399;28;20063;-76
2022/11/08 08:21:26;;;;;;;4.13;1.77;;;;;;;;;;5027712;28;20045;-76
2022/11/08 08:23:51;;;;;;;4.60;1.67;;;;;;;11.96;88.90;68097.44;5030742;28;20038;-76
2022/11/08 08:26:16;;;;;;;6.15;1.60;;;;;;;12.04;88.37;68105.41;5025879;28;20471;-75
2022/11/08 08:28:42;;;;;;;6.00;1.77;;;;;;;12.07;88.13;68109.38;5029654;28;20438;-76
2022/11/08 08:31:07;;;;;;;3.88;1.52;;;;;;;12.13;87.75;68120.97;5029163;28;20037;-76
2022/11/08 08:33:32;;;;;;;4.20;1.80;;;;;;;;;;5029050;28;20041;-75
2022/11/08 08:36:01;;;;;;;6.85;1.50;;;;;;;12.28;86.86;68129.97;5028191;28;20041;-76
2022/11/08 08:38:26;;;;;;;4.38;1.80;;;;;;;12.36;86.92;68146.53;5029917;28;20037;-76
2022/11/08 08:40:52;;;;;;;4.85;1.92;;;;;;;12.43;85.66;68149.16;5029755;28;20037;-76
2022/11/08 08:43:18;;;;;;;4.40;1.45;;;;;;;12.49;84.94;68155.97;5026358;28;20448;-76
2022/11/08 08:45:43;;;;;;;6.53;1.52;;;;;;;12.56;85.54;68163.34;5030101;28;20045;-76
2022/11/08 08:48:09;;;;;;;4.72;1.80;;;;;;;;;;5028870;28;20124;-76
2022/11/08 08:50:34;;;;;;;5.43;1.50;;;;;;;12.65;83.92;68173.56;5029934;28;20049;-76
2022/11/08 08:53:04;;;;;;;4.80;1.35;;;;;;;12.69;83.82;68175.47;5029228;28;20037;-76
2022/11/08 08:55:30;;;;;;;4.97;1.60;;;;;;;12.73;83.36;68182.09;5044380;23;20049;-80
2022/11/08 08:57:55;;;;;;;3.88;1.60;;;;;;;;;;4998159;28;20030;-80
2022/11/08 09:00:21;;;;;;;3.42;1.55;;;;;;;;;;4998770;28;20042;-81
2022/11/08 09:02:46;;;;;;;6.35;1.90;;;;;;;12.83;83.25;68194.03;4998420;28;20430;-81
2022/11/08 09:05:12;;;;;;;4.43;1.80;;;;;;;12.88;82.12;68199.16;5011919;28;20507;-80
2022/11/08 09:07:38;;;;;;;4.65;1.95;;;;;;;12.93;81.46;68204.28;5017978;28;20042;-80
2022/11/08 09:10:05;;;;;;;3.65;1.40;;;;;;;12.97;81.53;68206.13;5023569;28;20033;-79
2022/11/08 09:12:31;;;;;;;4.93;1.45;;;;;;;13.01;81.92;68213.94;5019798;28;20029;-80
2022/11/08 09:14:56;;;;;;;2.67;1.30;;;;;;;13.08;80.02;68221.88;5018149;28;20096;-79
2022/11/08 09:17:22;;;;;;;4.22;1.35;;;;;;;13.12;80.62;68225.88;5021747;28;20041;-80
2022/11/08 09:19:47;;;;;;;3.47;1.38;;;;;;;13.15;79.52;68228.72;5018987;28;20041;-80
2022/11/08 09:22:13;;;;;;;5.55;1.73;;;;;;;13.17;80.41;68231.00;5017980;28;20047;-79
2022/11/08 09:24:38;;;;;;;4.25;1.10;;;;;;;13.18;78.75;68232.69;5017558;28;20048;-80
2022/11/08 09:27:04;;;;;;;4.05;1.60;;;;;;;13.24;79.77;68244.88;5018139;28;20034;-80
2022/11/08 09:29:29;;;;;;;4.32;1.58;;;;;;;;;;5020214;28;20045;-81
2022/11/08 09:31:55;;;;;;;4.60;1.23;;;;;;;13.30;78.91;68240.44;5032868;28;20049;-80
2022/11/08 09:34:20;;;;;;;4.10;1.45;;;;;;;13.35;78.30;68250.91;5038531;28;20088;-81
2022/11/08 09:36:45;;;;;;;3.20;1.38;;;;;;;13.41;78.86;68258.31;5043154;28;20454;-80
2022/11/08 09:39:11;;;;;;;2.30;1.30;;;;;;;;;;5042407;28;20037;-80
2022/11/08 09:42:04;;;;;;;6.07;1.63;;;;;;;13.58;77.47;68277.09;5034160;28;20083;-80
2022/11/08 09:44:48;;;;;;;3.58;1.65;;;;;;;13.67;77.23;68287.31;5015135;28;20280;-81
2022/11/08 09:47:26;;;;;;;5.95;1.90;;;;;;;13.72;76.26;68290.34;5019101;28;20038;-80
2022/11/08 09:50:04;;;;;;;3.10;1.40;;;;;;;13.82;76.10;68303.81;5034877;28;20038;-81
2022/11/08 09:52:30;;;;;;;6.18;1.90;;;;;;;;;;5030251;28;20034;-80
2022/11/08 09:55:11;;;;;;;3.22;1.23;;;;;;;;;;5035027;28;20095;-80
2022/11/08 09:57:53;;;;;;;2.63;1.27;;;;;;;13.83;75.73;68301.69;5037776;28;20050;-80
2022/11/08 10:00:20;;;;;;;3.05;1.33;;;;;;;13.83;76.24;68304.38;5039619;28;20038;-80
2022/11/08 10:02:46;;;;;;;3.70;1.50;;;;;;;13.81;76.04;68302.69;5039350;28;20649;-80
2022/11/08 10:05:15;;;;;;;5.03;1.67;;;;;;;13.79;75.53;68299.84;5040763;28;20344;-81
2022/11/08 10:07:40;;;;;;;;;;;;;;;;;;5037669;28;20065;-81
2022/11/08 10:10:17;;;;;;;3.57;1.50;;;;;;;13.72;76.48;68292.44;5040053;28;19913;-81
2022/11/08 10:13:06;;;;;;;5.30;1.90;;;;;;;13.74;76.26;68295.28;5041555;28;20064;-81
2022/11/08 10:16:09;;;;;;;2.80;1.35;;;;;;;13.77;76.20;68298.69;5040040;28;20606;-80
2022/11/08 10:19:10;;;;;;;4.45;1.80;;;;;;;13.80;76.36;68301.53;5035459;28;20526;-79
2022/11/08 10:21:47;;;;;;;3.00;1.60;;;;;;;13.79;75.19;68299.84;5034929;28;20044;-79
2022/11/08 10:24:27;;;;;;;3.80;1.50;;;;;;;13.81;75.74;68302.09;5029122;28;20540;-79
2022/11/08 10:26:56;;;;;;;5.05;1.80;;;;;;;13.81;75.10;68299.41;5005232;28;20045;-81
2022/11/08 10:29:29;;;;;;;3.15;1.25;;;;;;;13.82;75.41;68303.25;5037132;28;20140;-80
2022/11/08 10:32:04;;;;;;;4.95;1.35;;;;;;;13.83;74.75;68310.28;5037372;28;20521;-81
2022/11/08 10:34:38;;;;;;;6.70;1.73;;;;;;;13.86;75.19;68305.13;5037401;28;20037;-81
2022/11/08 10:37:05;;;;;;;4.97;1.20;;;;;;;13.86;75.12;68307.78;5037452;28;20099;-80
2022/11/08 10:39:36;;;;;;;5.07;1.65;;;;;;;;;;5037521;28;20442;-81
2022/11/08 10:42:10;;;;;;;4.57;1.42;;;;;;;13.92;75.53;68314.59;5036736;28;20065;-80
2022/11/08 10:44:35;;;;;;;8.13;2.17;;;;;;;13.94;74.33;68314.22;5035851;28;20502;-80
2022/11/08 10:47:05;;;;;;;5.47;1.42;;;;;;;13.95;74.17;68318.03;5036663;28;20131;-81
2022/11/08 10:49:37;;;;;;;4.18;1.75;;;;;;;13.98;73.66;68321.44;5036564;28;20425;-80
2022/11/08 10:52:11;;;;;;;4.72;1.65;;;;;;;;;;5037147;28;20068;-80
2022/11/08 10:54:44;;;;;;;7.70;2.05;;;;;;;14.04;74.11;68327.69;5035632;28;20124;-80
2022/11/08 10:57:11;;;;;;;4.30;1.40;;;;;;;;;;5036372;28;20575;-79
2022/11/08 10:59:37;;;;;;;4.20;1.60;;;;;;;14.10;74.02;68334.53;5036458;28;20045;-80
2022/11/08 11:02:02;;;;;;;4.15;1.40;;;;;;;14.14;73.87;68339.09;5036731;28;20041;-80
2022/11/08 11:04:33;;;;;;;3.20;1.60;;;;;;;;;;5036015;28;20069;-81
2022/11/08 11:07:23;;;;;;;5.03;1.73;;;;;;;14.25;73.85;68356.97;5034356;28;20045;-79
2022/11/08 11:09:48;;;;;;;3.58;1.88;;;;;;;14.34;74.89;68361.28;5034838;28;20052;-80
2022/11/08 11:12:14;;;;;;;7.22;2.05;;;;;;;14.36;73.36;68364.13;5035858;28;20050;-79
2022/11/08 11:14:39;;;;;;;6.90;1.90;;;;;;;14.37;72.64;68370.03;5035889;28;20033;-80
2022/11/08 11:17:16;;;;;;;5.60;1.83;;;;;;;14.40;73.12;68366.00;5036011;28;20034;-81
2022/11/08 11:19:51;;;;;;;3.97;1.88;;;;;;;14.40;72.68;68363.31;5033957;28;20044;-80
2022/11/08 11:22:26;;;;;;;5.85;1.90;;;;;;;14.43;73.42;68376.88;5036923;28;20046;-81
2022/11/08 11:24:51;;;;;;;6.50;1.92;;;;;;;;;;5036328;28;20438;-81
2022/11/08 11:27:29;;;;;;;4.68;1.55;;;;;;;14.46;72.79;68372.25;5035743;28;20061;-80
2022/11/08 11:30:20;;;;;;;5.28;1.98;;;;;;;14.50;73.03;68376.81;5032878;28;20048;-81
2022/11/08 11:33:18;;;;;;;4.43;1.83;;;;;;;14.53;71.90;68380.25;5027895;28;20223;-80
2022/11/08 11:36:16;;;;;;;3.25;1.65;;;;;;;14.57;71.54;68387.47;5035827;28;20045;-81
2022/11/08 11:38:52;;;;;;;5.05;1.73;;;;;;;;;;5035613;28;20037;-79
2022/11/08 11:41:23;;;;;;;3.47;1.48;;;;;;;;;;5038061;28;20041;-80
2022/11/08 11:44:19;;;;;;;4.10;1.50;;;;;;;14.75;71.35;68407.41;5036097;28;20046;-80
2022/11/08 11:46:53;;;;;;;5.82;2.10;;;;;;;14.77;70.71;68409.13;5032967;28;20064;-81
2022/11/08 11:49:20;;;;;;;7.25;2.53;;;;;;;14.81;70.89;68419.03;5040107;28;20091;-79
2022/11/08 11:51:45;;;;;;;5.95;1.88;;;;;;;14.84;70.57;68414.97;5043670;28;20111;-80
2022/11/08 11:54:14;;;;;;;7.00;1.95;;;;;;;14.83;70.47;68415.94;5042278;28;20061;-81
2022/11/08 11:56:58;;;;;;;5.97;2.13;;;;;;;;;;5040339;28;20045;-80
2022/11/08 12:00:00;;;;;;;5.63;2.40;;;;;;;14.82;70.88;68420.16;5041530;28;20042;-81
2022/11/08 12:02:44;;;;;;;5.68;2.10;;;;;;;;;;5042220;28;20049;-80
2022/11/08 12:05:19;;;;;;;5.05;1.90;;;;;;;14.82;71.05;68415.38;5056962;28;20034;-81
2022/11/08 12:07:53;;;;;;;3.72;1.83;;;;;;;14.82;72.36;68412.13;5041342;28;20640;-81
2022/11/08 12:10:29;;;;;;;7.82;2.30;;;;;;;14.81;71.97;68410.97;5042493;28;20783;-81
2022/11/08 12:13:01;;;;;;;4.50;2.20;;;;;;;14.79;71.59;68411.41;5038564;28;20076;-79
2022/11/08 12:15:52;;;;;;;6.55;1.88;;;;;;;;;;5042341;28;20045;-80
2022/11/08 12:18:21;;;;;;;5.80;1.95;;;;;;;14.84;71.29;68417.06;5038196;28;20053;-81
2022/11/08 12:21:02;;;;;;;5.93;2.42;;;;;;;14.92;71.19;68425.63;5042071;28;20033;-80
2022/11/08 12:23:58;;;;;;;4.90;1.92;;;;;;;14.95;70.12;68426.91;5042447;28;20042;-81
2022/11/08 12:26:35;;;;;;;5.00;2.03;;;;;;;15.05;70.83;68441.00;5039347;28;20029;-81
2022/11/08 12:29:19;;;;;;;4.18;2.08;;;;;;;;;;5024352;28;20061;-81
2022/11/08 12:31:57;;;;;;;5.32;1.90;;;;;;;15.07;68.04;68443.25;5034131;28;20038;-79
2022/11/08 12:34:59;;;;;;;5.80;2.03;;;;;;;15.06;68.21;68439.44;5035165;28;20044;-80
2022/11/08 12:38:19;;;;;;;6.25;1.77;;;;;;;15.04;69.18;68437.16;5032888;28;20109;-80
2022/11/08 12:40:59;;;;;;;6.75;1.48;;;;;;;14.98;69.07;68432.44;5001287;28;20050;-80
2022/11/08 12:43:52;;;;;;;5.10;1.65;;;;;;;15.00;69.86;68440.09;5028395;28;20057;-80